createdAt,value
2022-10-01T00:01:52.695Z,100210.66
2022-10-01T00:04:20.460Z,100208.19
2022-10-01T00:06:48.168Z,100191.63
2022-10-01T00:09:15.968Z,100190.75
2022-10-01T00:11:45.033Z,100194.50
2022-10-01T00:14:12.711Z,100188.94
2022-10-01T00:16:40.473Z,100184.84
2022-10-01T00:19:08.251Z,100172.16
2022-10-01T00:21:36.346Z,100170.25
2022-10-01T00:24:07.067Z,100172.66
2022-10-01T00:26:37.665Z,100181.97
2022-10-01T00:29:09.073Z,100178.47
2022-10-01T00:31:37.347Z,100180.22
2022-10-01T00:34:06.434Z,100176.84
2022-10-01T00:36:35.299Z,100173.78
2022-10-01T00:39:03.058Z,100170.63
2022-10-01T00:41:33.031Z,100174.78
2022-10-01T00:44:02.518Z,100181.78
2022-10-01T00:46:40.119Z,100183.88
2022-10-01T00:49:12.325Z,100161.53
2022-10-01T00:51:43.434Z,100168.47
2022-10-01T00:54:14.742Z,100173.88
2022-10-01T00:56:43.305Z,100168.47
2022-10-01T00:59:11.937Z,100176.59
2022-10-01T01:01:41.130Z,100168.44
2022-10-01T01:04:16.484Z,100170.63
2022-10-01T01:06:46.144Z,100158.06
2022-10-01T01:09:14.150Z,100167.47
2022-10-01T01:11:49.992Z,100152.88
2022-10-01T01:14:23.966Z,100145.09
2022-10-01T01:16:59.444Z,100150.09
2022-10-01T01:19:44.176Z,100150.53
2022-10-01T01:22:15.544Z,100128.94
2022-10-01T01:24:50.141Z,100125.47
2022-10-01T01:27:29.080Z,100117.50
2022-10-01T01:30:03.673Z,100109.16
2022-10-01T01:32:39.365Z,100110.22
2022-10-01T01:35:11.219Z,100106.94
2022-10-01T01:37:45.771Z,100115.16
2022-10-01T01:40:16.838Z,100115.72
2022-10-01T01:42:46.185Z,100103.97
2022-10-01T01:45:21.048Z,100102.50
2022-10-01T01:47:49.611Z,100099.56
2022-10-01T01:50:18.773Z,100094.97
2022-10-01T01:52:46.518Z,100093.88
2022-10-01T01:55:14.237Z,100093.66
2022-10-01T01:57:44.785Z,100086.22
2022-10-01T02:00:14.329Z,100074.09
2022-10-01T02:02:49.117Z,100074.66
2022-10-01T02:05:20.647Z,100072.19
2022-10-01T02:08:23.061Z,100066.69
2022-10-01T02:11:05.523Z,100074.91
2022-10-01T02:13:44.337Z,100055.22
2022-10-01T02:16:21.090Z,100062.72
2022-10-01T02:18:58.607Z,100075.13
2022-10-01T02:21:31.579Z,100063.91
2022-10-01T02:24:04.950Z,100053.81
2022-10-01T02:26:35.069Z,100059.66
2022-10-01T02:29:08.102Z,100042.00
2022-10-01T02:31:37.019Z,100041.38
2022-10-01T02:34:12.622Z,100032.78
2022-10-01T02:36:42.545Z,100041.81
2022-10-01T02:39:12.643Z,100042.38
2022-10-01T02:41:41.444Z,100048.38
2022-10-01T02:44:13.533Z,100048.34
2022-10-01T02:46:45.977Z,100052.28
2022-10-01T02:49:15.447Z,100043.50
2022-10-01T02:51:54.659Z,100054.63
2022-10-01T02:54:28.843Z,100033.38
2022-10-01T02:57:15.416Z,100039.91
2022-10-01T02:59:43.189Z,100046.03
2022-10-01T03:02:11.320Z,100041.91
2022-10-01T03:04:40.400Z,100045.03
2022-10-01T03:07:08.417Z,100046.09
2022-10-01T03:09:37.336Z,100037.19
2022-10-01T03:12:06.559Z,100048.66
2022-10-01T03:14:34.383Z,100046.41
2022-10-01T03:17:02.032Z,100038.78
2022-10-01T03:19:29.706Z,100035.88
2022-10-01T03:21:58.819Z,100030.88
2022-10-01T03:24:26.581Z,100029.41
2022-10-01T03:26:55.084Z,100024.44
2022-10-01T03:29:22.759Z,100030.19
2022-10-01T03:31:50.537Z,100033.34
2022-10-01T03:34:18.335Z,100032.31
2022-10-01T03:36:47.017Z,100023.34
2022-10-01T03:39:16.063Z,100017.59
2022-10-01T03:41:44.067Z,100011.28
2022-10-01T03:44:11.847Z,100007.09
2022-10-01T03:46:39.543Z,100002.72
2022-10-01T03:49:07.507Z,99992.19
2022-10-01T03:51:36.276Z,99993.34
2022-10-01T03:54:05.509Z,99987.28
2022-10-01T03:56:35.229Z,99981.31
2022-10-01T03:59:03.303Z,99977.44
2022-10-01T04:01:31.473Z,99967.03
2022-10-01T04:03:59.352Z,99968.31
2022-10-01T04:06:27.102Z,99957.22
2022-10-01T04:08:54.883Z,99947.31
2022-10-01T04:11:22.727Z,99949.91
2022-10-01T04:13:51.788Z,99960.34
2022-10-01T04:16:19.493Z,99954.41
2022-10-01T04:18:47.267Z,99947.56
2022-10-01T04:21:15.509Z,99951.88
2022-10-01T04:23:43.303Z,99942.50
2022-10-01T04:26:11.112Z,99951.88
2022-10-01T04:28:39.060Z,99937.94
2022-10-01T04:31:26.541Z,99951.91
2022-10-01T04:33:55.601Z,99935.38
2022-10-01T04:36:24.617Z,99938.69
2022-10-01T04:38:56.660Z,99952.66
2022-10-01T04:41:27.281Z,99956.78
2022-10-01T04:43:54.988Z,99954.19
2022-10-01T04:46:24.111Z,99946.63
2022-10-01T04:48:51.891Z,99946.69
2022-10-01T04:51:19.552Z,99944.59
2022-10-01T04:53:47.263Z,99944.75
2022-10-01T04:56:14.971Z,99946.22
2022-10-01T04:58:42.623Z,99937.94
2022-10-01T05:01:10.385Z,99931.78
2022-10-01T05:03:39.788Z,99942.91
2022-10-01T05:06:07.461Z,99938.16
2022-10-01T05:08:35.177Z,99930.94
2022-10-01T05:11:03.140Z,99936.91
2022-10-01T05:13:31.916Z,99928.28
2022-10-01T05:15:59.834Z,99918.22
2022-10-01T05:18:27.618Z,99911.41
2022-10-01T05:20:56.695Z,99905.63
2022-10-01T05:23:24.370Z,99913.06
2022-10-01T05:25:52.131Z,99908.31
2022-10-01T05:28:22.430Z,99920.19
2022-10-01T05:30:50.958Z,99902.63
2022-10-01T05:33:18.707Z,99913.56
2022-10-01T05:35:46.419Z,99894.25
2022-10-01T05:38:15.478Z,99905.03
2022-10-01T05:40:46.378Z,99900.97
2022-10-01T05:43:14.288Z,99896.72
2022-10-01T05:45:42.591Z,99886.66
2022-10-01T05:48:10.863Z,99903.38
2022-10-01T05:50:40.957Z,99912.13
2022-10-01T05:53:11.019Z,99901.50
2022-10-01T05:55:40.080Z,99890.81
2022-10-01T05:58:10.447Z,99892.16
2022-10-01T06:00:39.896Z,99912.63
2022-10-01T06:03:08.576Z,99894.13
2022-10-01T06:05:37.877Z,99887.97
2022-10-01T06:08:07.233Z,99893.97
2022-10-01T06:10:36.767Z,99882.03
2022-10-01T06:13:06.652Z,99882.53
2022-10-01T06:15:37.411Z,99898.41
2022-10-01T06:18:05.549Z,99893.78
2022-10-01T06:20:33.249Z,99873.59
2022-10-01T06:23:01.520Z,99889.66
2022-10-01T06:25:30.794Z,99896.91
2022-10-01T06:28:00.682Z,99877.03
2022-10-01T06:30:32.447Z,99879.56
2022-10-01T06:33:02.739Z,99896.78
2022-10-01T06:35:30.495Z,99901.66
2022-10-01T06:37:58.335Z,99933.44
2022-10-01T06:40:26.395Z,99922.53
2022-10-01T06:42:57.826Z,99922.03
2022-10-01T06:45:25.980Z,99918.28
2022-10-01T06:47:59.746Z,99934.91
2022-10-01T06:50:27.464Z,99923.78
2022-10-01T06:52:55.702Z,99913.44
2022-10-01T06:55:26.651Z,99896.41
2022-10-01T06:57:58.431Z,99860.38
2022-10-01T07:00:27.061Z,99874.25
2022-10-01T07:02:55.619Z,99897.84
2022-10-01T07:05:25.742Z,99913.88
2022-10-01T07:07:53.702Z,99908.28
2022-10-01T07:10:23.194Z,99891.72
2022-10-01T07:12:51.548Z,99898.16
2022-10-01T07:15:21.148Z,99890.94
2022-10-01T07:17:50.867Z,99899.19
2022-10-01T07:20:20.490Z,99909.53
2022-10-01T07:22:50.718Z,99892.31
2022-10-01T07:25:18.467Z,99869.91
2022-10-01T07:27:46.257Z,99866.53
2022-10-01T07:30:14.029Z,99830.22
2022-10-01T07:32:44.997Z,99842.88
2022-10-01T07:35:12.721Z,99850.59
2022-10-01T07:37:40.393Z,99850.03
2022-10-01T07:40:10.483Z,99813.88
2022-10-01T07:42:38.283Z,99839.50
2022-10-01T07:45:07.524Z,99800.34
2022-10-01T07:47:35.376Z,99792.63
2022-10-01T07:50:03.145Z,99803.56
2022-10-01T07:52:32.454Z,99781.06
2022-10-01T07:55:00.199Z,99769.41
2022-10-01T07:57:29.555Z,99728.72
2022-10-01T07:59:57.209Z,99725.41
2022-10-01T08:02:24.945Z,99709.00
2022-10-01T08:05:10.595Z,99697.75
2022-10-01T08:07:38.338Z,99662.47
2022-10-01T08:10:12.141Z,99654.72
2022-10-01T08:12:42.673Z,99619.53
2022-10-01T08:15:12.437Z,99610.03
2022-10-01T08:17:40.290Z,99613.34
2022-10-01T08:20:10.705Z,99637.34
2022-10-01T08:22:42.083Z,99610.69
2022-10-01T08:25:10.820Z,99604.59
2022-10-01T08:27:38.520Z,99591.50
2022-10-01T08:30:09.196Z,99577.19
2022-10-01T08:32:36.908Z,99578.97
2022-10-01T08:35:05.427Z,99575.72
2022-10-01T08:37:33.214Z,99577.19
2022-10-01T08:40:01.003Z,99571.22
2022-10-01T08:42:49.674Z,99575.28
2022-10-01T08:45:24.345Z,99571.19
2022-10-01T08:47:59.884Z,99564.44
2022-10-01T08:50:39.911Z,99560.78
2022-10-01T08:53:15.303Z,99545.06
2022-10-01T08:55:43.671Z,99559.00
2022-10-01T08:58:15.295Z,99570.75
2022-10-01T09:00:46.207Z,99575.94
2022-10-01T09:03:17.173Z,99609.75
2022-10-01T09:05:58.456Z,99631.94
2022-10-01T09:08:44.889Z,99672.47
2022-10-01T09:11:23.871Z,99662.44
2022-10-01T09:14:05.100Z,99711.06
2022-10-01T09:16:42.161Z,99758.31
2022-10-01T09:19:31.782Z,99786.59
2022-10-01T09:22:03.240Z,99859.03
2022-10-01T09:24:43.501Z,99908.84
2022-10-01T09:27:14.850Z,99909.69
2022-10-01T09:29:49.002Z,99910.06
2022-10-01T09:32:22.639Z,99884.75
2022-10-01T09:34:51.452Z,99939.09
2022-10-01T09:37:33.640Z,100185.78
2022-10-01T09:40:15.800Z,100207.53
2022-10-01T09:42:44.380Z,100232.69
2022-10-01T09:45:13.839Z,100248.97
2022-10-01T09:47:44.882Z,100246.19
2022-10-01T09:50:18.502Z,100274.84
2022-10-01T09:52:51.141Z,100281.34
2022-10-01T09:55:29.163Z,100308.50
2022-10-01T09:58:01.069Z,100300.53
2022-10-01T10:00:29.082Z,100322.25
2022-10-01T10:02:58.301Z,100329.22
2022-10-01T10:05:28.449Z,100355.03
2022-10-01T10:07:59.520Z,100363.78
2022-10-01T10:10:30.711Z,100372.97
2022-10-01T10:13:01.946Z,100383.09
2022-10-01T10:15:31.400Z,100391.78
2022-10-01T10:18:08.061Z,100412.63
2022-10-01T10:20:41.333Z,100412.88
2022-10-01T10:23:10.649Z,100420.44
2022-10-01T10:25:38.400Z,100437.25
2022-10-01T10:28:06.920Z,100438.16
2022-10-01T10:30:42.735Z,100445.06
2022-10-01T10:33:15.427Z,100451.22
2022-10-01T10:35:44.245Z,100463.69
2022-10-01T10:38:18.926Z,100465.75
2022-10-01T10:40:47.738Z,100474.94
2022-10-01T10:43:22.715Z,100486.88
2022-10-01T10:45:56.315Z,100480.25
2022-10-01T10:48:31.678Z,100485.09
2022-10-01T10:51:04.418Z,100496.91
2022-10-01T10:53:43.987Z,100501.75
2022-10-01T10:56:40.463Z,100500.47
2022-10-01T10:59:09.350Z,100501.09
2022-10-01T11:01:43.908Z,100504.44
2022-10-01T11:04:25.913Z,100508.19
2022-10-01T11:06:58.774Z,100503.56
2022-10-01T11:09:30.267Z,100506.47
2022-10-01T11:12:06.152Z,100521.88
2022-10-01T11:14:49.984Z,100510.09
2022-10-01T11:17:31.000Z,100500.25
2022-10-01T11:20:20.455Z,100503.00
2022-10-01T11:23:03.766Z,100509.22
2022-10-01T11:25:43.964Z,100503.97
2022-10-01T11:28:26.786Z,100508.31
2022-10-01T11:31:04.678Z,100518.25
2022-10-01T11:33:44.973Z,100508.69
2022-10-01T11:36:24.887Z,100507.41
2022-10-01T11:38:59.114Z,100495.94
2022-10-01T11:41:32.533Z,100494.56
2022-10-01T11:44:05.326Z,100481.25
2022-10-01T11:46:41.135Z,100485.19
2022-10-01T11:49:24.600Z,100478.38
2022-10-01T11:52:04.177Z,100478.72
2022-10-01T11:54:35.456Z,100478.19
2022-10-01T11:57:23.319Z,100456.22
2022-10-01T11:59:56.013Z,100467.56
2022-10-01T12:02:28.370Z,100461.69
2022-10-01T12:05:00.037Z,100460.50
2022-10-01T12:07:38.322Z,100463.91
2022-10-01T12:10:18.703Z,100464.50
2022-10-01T12:12:50.895Z,100460.84
2022-10-01T12:15:21.981Z,100468.56
2022-10-01T12:17:54.396Z,100471.72
2022-10-01T12:20:28.904Z,100477.44
2022-10-01T12:23:00.820Z,100471.50
2022-10-01T12:25:35.422Z,100469.19
2022-10-01T12:28:10.621Z,100471.72
2022-10-01T12:30:47.742Z,100469.00
2022-10-01T12:33:45.784Z,100466.41
2022-10-01T12:36:25.144Z,100471.06
2022-10-01T12:39:11.705Z,100464.47
2022-10-01T12:41:50.978Z,100478.34
2022-10-01T12:44:38.036Z,100469.47
2022-10-01T12:47:21.937Z,100472.66
2022-10-01T12:49:57.453Z,100465.69
2022-10-01T12:52:38.907Z,100462.63
2022-10-01T12:55:26.553Z,100466.91
2022-10-01T12:58:12.946Z,100471.13
2022-10-01T13:00:50.460Z,100478.22
2022-10-01T13:03:42.299Z,100464.94
2022-10-01T13:06:24.475Z,100465.91
2022-10-01T13:09:07.501Z,100458.97
2022-10-01T13:11:50.316Z,100466.75
2022-10-01T13:14:19.665Z,100459.81
2022-10-01T13:16:57.081Z,100458.13
2022-10-01T13:19:31.945Z,100435.16
2022-10-01T13:22:10.043Z,100421.22
2022-10-01T13:24:43.530Z,100404.22
2022-10-01T13:27:19.441Z,100408.75
2022-10-01T13:29:55.704Z,100389.25
2022-10-01T13:32:33.194Z,100384.56
2022-10-01T13:35:03.512Z,100375.91
2022-10-01T13:37:37.616Z,100368.97
2022-10-01T13:40:23.186Z,100358.59
2022-10-01T13:42:54.688Z,100332.59
2022-10-01T13:45:28.091Z,100318.09
2022-10-01T13:48:07.515Z,100284.81
2022-10-01T13:50:35.958Z,100264.56
2022-10-01T13:53:10.202Z,100285.25
2022-10-01T13:55:50.897Z,100281.16
2022-10-01T13:58:41.481Z,100283.03
2022-10-01T14:01:29.118Z,100269.91
2022-10-01T14:04:05.077Z,100258.88
2022-10-01T14:06:42.357Z,100153.03
2022-10-01T14:09:16.176Z,100101.94
2022-10-01T14:12:04.442Z,100019.16
2022-10-01T14:14:54.522Z,99955.16
2022-10-01T14:17:23.702Z,99936.59
2022-10-01T14:19:51.913Z,99913.56
2022-10-01T14:22:31.178Z,99973.22
2022-10-01T14:25:16.452Z,99974.69
2022-10-01T14:27:48.580Z,99848.09
2022-10-01T14:30:21.962Z,99725.28
2022-10-01T14:33:09.129Z,99704.31
2022-10-01T14:35:40.814Z,99635.28
2022-10-01T14:38:14.671Z,99630.88
2022-10-01T14:40:44.482Z,99724.41
2022-10-01T14:43:18.915Z,99718.00
2022-10-01T14:45:54.906Z,99680.28
2022-10-01T14:48:24.079Z,99652.53
2022-10-01T14:50:54.474Z,99613.84
2022-10-01T14:53:25.191Z,99627.75
2022-10-01T14:55:56.025Z,99620.22
2022-10-01T14:58:28.476Z,99592.78
2022-10-01T15:00:58.930Z,99669.56
2022-10-01T15:03:26.736Z,99686.75
2022-10-01T15:06:04.689Z,99647.94
2022-10-01T15:08:39.919Z,99602.06
2022-10-01T15:11:13.133Z,99591.53
2022-10-01T15:13:44.190Z,99636.66
2022-10-01T15:16:16.717Z,99631.66
2022-10-01T15:18:48.161Z,99687.34
2022-10-01T15:21:21.001Z,99685.09
2022-10-01T15:23:49.915Z,99739.22
2022-10-01T15:26:22.423Z,99764.63
2022-10-01T15:28:50.808Z,99799.38
2022-10-01T15:31:22.941Z,99843.97
2022-10-01T15:33:51.790Z,99887.84
2022-10-01T15:36:20.055Z,99937.00
2022-10-01T15:38:50.701Z,99970.41
2022-10-01T15:41:32.653Z,99961.25
2022-10-01T15:44:05.045Z,99978.44
2022-10-01T15:46:35.617Z,99978.94
2022-10-01T15:49:20.530Z,99994.94
2022-10-01T15:52:16.093Z,100014.28
2022-10-01T15:54:45.591Z,100044.66
2022-10-01T15:57:18.726Z,100080.63
2022-10-01T15:59:47.606Z,100076.31
2022-10-01T16:02:21.781Z,100085.31
2022-10-01T16:04:52.854Z,100100.38
2022-10-01T16:07:22.599Z,100141.00
2022-10-01T16:09:57.029Z,100112.84
2022-10-01T16:12:28.531Z,100110.31
2022-10-01T16:15:00.758Z,100135.84
2022-10-01T16:17:32.589Z,100119.06
2022-10-01T16:20:03.129Z,100117.28
2022-10-01T16:22:32.833Z,100124.53
2022-10-01T16:25:02.125Z,100128.28
2022-10-01T16:27:32.957Z,100133.38
2022-10-01T16:30:05.600Z,100120.63
2022-10-01T16:32:35.219Z,100140.00
2022-10-01T16:35:20.823Z,100114.34
2022-10-01T16:37:50.186Z,100127.31
2022-10-01T16:40:18.711Z,100122.81
2022-10-01T16:42:48.087Z,100106.69
2022-10-01T16:45:17.973Z,100120.63
2022-10-01T16:47:47.438Z,100125.03
2022-10-01T16:50:17.856Z,100111.69
2022-10-01T16:52:46.143Z,100078.72
2022-10-01T16:55:20.255Z,100075.56
2022-10-01T16:57:48.055Z,100080.38
2022-10-01T17:00:16.622Z,100102.81
2022-10-01T17:02:45.117Z,100098.03
2022-10-01T17:05:22.247Z,100092.81
2022-10-01T17:07:50.415Z,100091.66
2022-10-01T17:10:19.373Z,100099.03
2022-10-01T17:12:48.043Z,100091.56
2022-10-01T17:15:18.306Z,100090.75
2022-10-01T17:17:46.639Z,100070.38
2022-10-01T17:20:14.808Z,100061.88
2022-10-01T17:22:51.032Z,100057.84
2022-10-01T17:25:20.914Z,100069.13
2022-10-01T17:27:49.145Z,100107.56
2022-10-01T17:30:17.479Z,100115.28
2022-10-01T17:32:46.596Z,100152.25
2022-10-01T17:35:16.482Z,100149.63
2022-10-01T17:37:45.565Z,100143.63
2022-10-01T17:40:13.642Z,100157.34
2022-10-01T17:42:41.321Z,100170.47
2022-10-01T17:45:11.345Z,100188.78
2022-10-01T17:47:44.141Z,100185.84
2022-10-01T17:50:12.372Z,100172.25
2022-10-01T17:52:40.071Z,100179.94
2022-10-01T17:55:11.447Z,100180.09
2022-10-01T17:57:39.203Z,100212.13
2022-10-01T18:00:08.103Z,100213.88
2022-10-01T18:02:43.554Z,100223.19
2022-10-01T18:05:14.415Z,100231.03
2022-10-01T18:07:42.827Z,100238.28
2022-10-01T18:10:14.304Z,100235.00
2022-10-01T18:12:42.362Z,100244.69
2022-10-01T18:15:10.802Z,100237.13
2022-10-01T18:17:43.417Z,100255.75
2022-10-01T18:20:19.197Z,100255.00
2022-10-01T18:22:46.979Z,100265.22
2022-10-01T18:25:16.986Z,100283.63
2022-10-01T18:27:46.561Z,100275.31
2022-10-01T18:30:14.366Z,100300.06
2022-10-01T18:32:45.896Z,100283.34
2022-10-01T18:35:26.472Z,100309.19
2022-10-01T18:37:57.607Z,100329.69
2022-10-01T18:40:29.932Z,100331.03
2022-10-01T18:43:26.818Z,100363.13
2022-10-01T18:46:10.508Z,100361.16
2022-10-01T18:49:10.082Z,100359.41
2022-10-01T18:51:51.005Z,100361.97
2022-10-01T18:54:39.450Z,100357.00
2022-10-01T18:57:19.124Z,100364.78
2022-10-01T18:59:59.761Z,100384.72
2022-10-01T19:03:24.395Z,100392.19
2022-10-01T19:06:14.602Z,100376.91
2022-10-01T19:08:55.142Z,100397.00
2022-10-01T19:11:29.865Z,100402.09
2022-10-01T19:14:18.342Z,100412.41
2022-10-01T19:16:53.803Z,100410.09
2022-10-01T19:19:32.814Z,100465.00
2022-10-01T19:22:02.735Z,100483.19
2022-10-01T19:25:01.434Z,100495.16
2022-10-01T19:27:49.116Z,100497.09
2022-10-01T19:30:20.176Z,100512.19
2022-10-01T19:32:54.809Z,100511.31
2022-10-01T19:35:24.378Z,100530.28
2022-10-01T19:37:56.008Z,100540.19
2022-10-01T19:40:30.154Z,100553.84
2022-10-01T19:43:06.657Z,100573.63
2022-10-01T19:45:43.364Z,100561.25
2022-10-01T19:48:19.296Z,100581.88
2022-10-01T19:50:54.187Z,100584.22
2022-10-01T19:53:27.329Z,100603.72
2022-10-01T19:55:56.162Z,100612.88
2022-10-01T19:58:24.146Z,100607.84
2022-10-01T20:00:57.265Z,100608.72
2022-10-01T20:03:35.475Z,100637.00
2022-10-01T20:06:07.572Z,100635.84
2022-10-01T20:08:39.588Z,100638.19
2022-10-01T20:11:22.290Z,100648.81
2022-10-01T20:14:33.848Z,100657.47
2022-10-01T20:17:13.241Z,100660.97
2022-10-01T20:19:47.897Z,100660.47
2022-10-01T20:22:27.698Z,100651.63
2022-10-01T20:25:03.913Z,100663.31
2022-10-01T20:27:48.408Z,100665.81
2022-10-01T20:30:20.564Z,100670.81
2022-10-01T20:32:57.490Z,100678.13
2022-10-01T20:35:32.362Z,100684.44
2022-10-01T20:38:06.893Z,100681.78
2022-10-01T20:40:40.342Z,100672.94
2022-10-01T20:43:14.382Z,100653.81
2022-10-01T20:45:42.879Z,100669.78
2022-10-01T20:48:19.387Z,100695.75
2022-10-01T20:50:50.571Z,100688.25
2022-10-01T20:53:25.507Z,100701.91
2022-10-01T20:56:01.663Z,100702.75
2022-10-01T20:58:34.270Z,100727.19
2022-10-01T21:01:12.930Z,100741.34
2022-10-01T21:03:45.678Z,100742.34
2022-10-01T21:06:17.663Z,100756.31
2022-10-01T21:08:52.427Z,100752.66
2022-10-01T21:11:29.965Z,100753.50
2022-10-01T21:14:05.279Z,100749.50
2022-10-01T21:17:02.091Z,100759.31
2022-10-01T21:19:47.290Z,100772.28
2022-10-01T21:22:29.250Z,100792.09
2022-10-01T21:25:04.237Z,100787.56
2022-10-01T21:27:54.759Z,100809.06
2022-10-01T21:30:23.447Z,100812.13
2022-10-01T21:33:07.283Z,100821.16
2022-10-01T21:35:49.025Z,100820.38
2022-10-01T21:38:28.588Z,100827.47
2022-10-01T21:41:40.053Z,100833.47
2022-10-01T21:44:23.612Z,100836.47
2022-10-01T21:47:01.251Z,100842.41
2022-10-01T21:49:42.866Z,100840.66
2022-10-01T21:52:24.707Z,100832.16
2022-10-01T21:55:17.131Z,100836.78
2022-10-01T21:58:02.079Z,100850.22
2022-10-01T22:00:40.289Z,100873.88
2022-10-01T22:03:19.468Z,100872.34
2022-10-01T22:05:56.115Z,100876.22
2022-10-01T22:08:37.949Z,100870.91
2022-10-01T22:11:14.864Z,100865.69
2022-10-01T22:13:49.204Z,100875.50
2022-10-01T22:16:18.163Z,100895.69
2022-10-01T22:18:49.320Z,100899.06
2022-10-01T22:21:23.931Z,100900.75
2022-10-01T22:24:00.802Z,100909.72
2022-10-01T22:26:32.846Z,100915.53
2022-10-01T22:29:02.949Z,100908.72
2022-10-01T22:31:35.747Z,100916.53
2022-10-01T22:34:09.207Z,100918.09
2022-10-01T22:36:43.264Z,100928.06
2022-10-01T22:39:18.321Z,100929.06
2022-10-01T22:41:48.372Z,100928.22
2022-10-01T22:44:19.919Z,100943.69
2022-10-01T22:47:04.104Z,100950.47
2022-10-01T22:49:45.199Z,100937.31
2022-10-01T22:52:26.846Z,100959.13
2022-10-01T22:55:08.572Z,100946.16
2022-10-01T22:57:54.179Z,100949.53
2022-10-01T23:00:22.332Z,100939.06
2022-10-01T23:03:02.056Z,100932.25
2022-10-01T23:05:41.974Z,100930.25
2022-10-01T23:08:20.476Z,100943.66
2022-10-01T23:11:02.601Z,100958.44
2022-10-01T23:13:40.415Z,100946.31
2022-10-01T23:16:15.584Z,100938.00
2022-10-01T23:18:54.684Z,100951.59
2022-10-01T23:21:34.775Z,100920.28
2022-10-01T23:24:17.937Z,100917.00
2022-10-01T23:26:57.564Z,100937.53
2022-10-01T23:29:49.376Z,100944.47
2022-10-01T23:32:33.104Z,100927.22
2022-10-01T23:35:09.084Z,100921.78
2022-10-01T23:37:58.112Z,100915.44
2022-10-01T23:40:39.182Z,100925.88
2022-10-01T23:43:14.232Z,100913.38
2022-10-01T23:45:47.052Z,100919.19
2022-10-01T23:48:19.102Z,100934.56
2022-10-01T23:50:58.887Z,100918.94
2022-10-01T23:53:33.160Z,100907.16
2022-10-01T23:56:22.376Z,100899.44
2022-10-01T23:58:56.983Z,100884.94
